sensor_id;sensor_type;location;lat;lon;timestamp;P1;durP1;ratioP1;P2;durP2;ratioP2
73893;SDS011;62699;50.534;12.784;2023-02-28T00:01:50;14.70;;;8.30;;
73893;SDS011;62699;50.534;12.784;2023-02-28T00:06:50;13.20;;;7.75;;
73893;SDS011;62699;50.534;12.784;2023-02-28T00:11:51;15.77;;;8.63;;
73893;SDS011;62699;50.534;12.784;2023-02-28T00:16:51;12.43;;;7.50;;
73893;SDS011;62699;50.534;12.784;2023-02-28T00:21:51;14.88;;;8.38;;
73893;SDS011;62699;50.534;12.784;2023-02-28T00:26:51;14.13;;;8.02;;
73893;SDS011;62699;50.534;12.784;2023-02-28T00:31:52;13.15;;;7.32;;
73893;SDS011;62699;50.534;12.784;2023-02-28T00:36:52;13.04;;;7.32;;
73893;SDS011;62699;50.534;12.784;2023-02-28T00:41:52;14.40;;;7.97;;
73893;SDS011;62699;50.534;12.784;2023-02-28T00:46:53;15.32;;;8.43;;
73893;SDS011;62699;50.534;12.784;2023-02-28T00:51:54;15.35;;;8.23;;
73893;SDS011;62699;50.534;12.784;2023-02-28T00:56:55;13.63;;;7.47;;
73893;SDS011;62699;50.534;12.784;2023-02-28T01:01:55;15.30;;;8.98;;
73893;SDS011;62699;50.534;12.784;2023-02-28T01:06:56;12.52;;;8.43;;
73893;SDS011;62699;50.534;12.784;2023-02-28T01:11:56;14.07;;;7.95;;
73893;SDS011;62699;50.534;12.784;2023-02-28T01:16:56;17.67;;;8.40;;
73893;SDS011;62699;50.534;12.784;2023-02-28T01:21:57;16.23;;;7.72;;
73893;SDS011;62699;50.534;12.784;2023-02-28T01:27:00;12.98;;;6.60;;
73893;SDS011;62699;50.534;12.784;2023-02-28T01:32:01;12.02;;;6.68;;
73893;SDS011;62699;50.534;12.784;2023-02-28T01:37:01;11.44;;;6.76;;
73893;SDS011;62699;50.534;12.784;2023-02-28T01:42:01;14.00;;;8.65;;
73893;SDS011;62699;50.534;12.784;2023-02-28T01:47:01;12.35;;;7.18;;
73893;SDS011;62699;50.534;12.784;2023-02-28T01:52:02;10.60;;;6.63;;
73893;SDS011;62699;50.534;12.784;2023-02-28T01:57:13;12.18;;;6.10;;
73893;SDS011;62699;50.534;12.784;2023-02-28T02:02:17;12.13;;;6.80;;
73893;SDS011;62699;50.534;12.784;2023-02-28T02:07:19;11.00;;;6.18;;
73893;SDS011;62699;50.534;12.784;2023-02-28T02:12:26;8.82;;;5.70;;
73893;SDS011;62699;50.534;12.784;2023-02-28T02:17:40;10.65;;;6.47;;
73893;SDS011;62699;50.534;12.784;2023-02-28T02:38:46;12.27;;;6.38;;
73893;SDS011;62699;50.534;12.784;2023-02-28T02:44:21;12.07;;;6.53;;
73893;SDS011;62699;50.534;12.784;2023-02-28T02:49:27;11.63;;;6.78;;
73893;SDS011;62699;50.534;12.784;2023-02-28T02:54:32;13.05;;;6.70;;
73893;SDS011;62699;50.534;12.784;2023-02-28T02:59:36;10.88;;;5.95;;
73893;SDS011;62699;50.534;12.784;2023-02-28T03:04:51;11.90;;;6.80;;
73893;SDS011;62699;50.534;12.784;2023-02-28T03:09:54;11.75;;;6.03;;
73893;SDS011;62699;50.534;12.784;2023-02-28T03:14:57;11.18;;;5.93;;
73893;SDS011;62699;50.534;12.784;2023-02-28T03:20:11;12.60;;;6.40;;
73893;SDS011;62699;50.534;12.784;2023-02-28T03:25:29;8.45;;;5.53;;
73893;SDS011;62699;50.534;12.784;2023-02-28T03:30:37;12.50;;;7.40;;
73893;SDS011;62699;50.534;12.784;2023-02-28T03:35:47;12.48;;;6.85;;
73893;SDS011;62699;50.534;12.784;2023-02-28T03:40:54;10.10;;;6.00;;
73893;SDS011;62699;50.534;12.784;2023-02-28T03:46:00;10.20;;;5.47;;
73893;SDS011;62699;50.534;12.784;2023-02-28T03:51:06;11.10;;;6.75;;
73893;SDS011;62699;50.534;12.784;2023-02-28T03:56:15;12.40;;;6.20;;
73893;SDS011;62699;50.534;12.784;2023-02-28T04:01:31;15.43;;;7.25;;
73893;SDS011;62699;50.534;12.784;2023-02-28T04:06:41;9.38;;;5.57;;
73893;SDS011;62699;50.534;12.784;2023-02-28T04:11:50;10.23;;;6.15;;
73893;SDS011;62699;50.534;12.784;2023-02-28T04:16:52;12.90;;;6.50;;
73893;SDS011;62699;50.534;12.784;2023-02-28T04:21:53;12.88;;;6.95;;
73893;SDS011;62699;50.534;12.784;2023-02-28T04:26:55;12.78;;;6.80;;
73893;SDS011;62699;50.534;12.784;2023-02-28T04:31:56;11.00;;;5.85;;
73893;SDS011;62699;50.534;12.784;2023-02-28T04:37:01;18.13;;;7.10;;
73893;SDS011;62699;50.534;12.784;2023-02-28T04:42:03;12.10;;;6.57;;
73893;SDS011;62699;50.534;12.784;2023-02-28T04:47:03;13.23;;;6.30;;
73893;SDS011;62699;50.534;12.784;2023-02-28T04:52:04;12.93;;;7.07;;
73893;SDS011;62699;50.534;12.784;2023-02-28T04:57:05;11.38;;;6.88;;
73893;SDS011;62699;50.534;12.784;2023-02-28T05:02:05;11.35;;;6.05;;
73893;SDS011;62699;50.534;12.784;2023-02-28T05:07:06;13.90;;;6.70;;
73893;SDS011;62699;50.534;12.784;2023-02-28T05:12:07;19.20;;;9.44;;
73893;SDS011;62699;50.534;12.784;2023-02-28T05:17:08;15.45;;;8.63;;
73893;SDS011;62699;50.534;12.784;2023-02-28T05:22:13;13.57;;;6.05;;
73893;SDS011;62699;50.534;12.784;2023-02-28T05:27:16;10.63;;;6.07;;
73893;SDS011;62699;50.534;12.784;2023-02-28T05:32:16;14.52;;;8.68;;
73893;SDS011;62699;50.534;12.784;2023-02-28T05:37:17;14.40;;;7.63;;
73893;SDS011;62699;50.534;12.784;2023-02-28T05:42:17;16.14;;;9.36;;
73893;SDS011;62699;50.534;12.784;2023-02-28T05:47:17;13.40;;;9.43;;
73893;SDS011;62699;50.534;12.784;2023-02-28T05:52:18;13.90;;;7.20;;
73893;SDS011;62699;50.534;12.784;2023-02-28T05:57:18;16.02;;;7.22;;
73893;SDS011;62699;50.534;12.784;2023-02-28T06:02:19;13.90;;;6.60;;
73893;SDS011;62699;50.534;12.784;2023-02-28T06:07:20;11.05;;;5.63;;
73893;SDS011;62699;50.534;12.784;2023-02-28T06:12:22;12.25;;;6.78;;
73893;SDS011;62699;50.534;12.784;2023-02-28T06:17:22;14.84;;;7.92;;
73893;SDS011;62699;50.534;12.784;2023-02-28T06:22:23;10.68;;;6.18;;
73893;SDS011;62699;50.534;12.784;2023-02-28T06:27:23;11.72;;;6.82;;
73893;SDS011;62699;50.534;12.784;2023-02-28T06:32:23;10.18;;;5.53;;
73893;SDS011;62699;50.534;12.784;2023-02-28T06:37:24;10.40;;;6.35;;
73893;SDS011;62699;50.534;12.784;2023-02-28T06:42:27;15.73;;;7.18;;
73893;SDS011;62699;50.534;12.784;2023-02-28T06:47:30;10.55;;;5.72;;
73893;SDS011;62699;50.534;12.784;2023-02-28T06:52:31;13.23;;;7.28;;
73893;SDS011;62699;50.534;12.784;2023-02-28T06:57:32;15.52;;;6.32;;
73893;SDS011;62699;50.534;12.784;2023-02-28T07:02:34;15.40;;;7.60;;
73893;SDS011;62699;50.534;12.784;2023-02-28T07:07:35;11.90;;;6.68;;
73893;SDS011;62699;50.534;12.784;2023-02-28T07:12:38;11.63;;;6.80;;
73893;SDS011;62699;50.534;12.784;2023-02-28T07:17:38;12.43;;;7.18;;
73893;SDS011;62699;50.534;12.784;2023-02-28T07:22:39;13.75;;;7.38;;
73893;SDS011;62699;50.534;12.784;2023-02-28T07:27:39;14.73;;;8.95;;
73893;SDS011;62699;50.534;12.784;2023-02-28T07:32:39;14.65;;;9.32;;
73893;SDS011;62699;50.534;12.784;2023-02-28T07:37:39;15.70;;;9.38;;
73893;SDS011;62699;50.534;12.784;2023-02-28T07:42:41;14.05;;;8.20;;
73893;SDS011;62699;50.534;12.784;2023-02-28T07:47:41;11.23;;;7.47;;
73893;SDS011;62699;50.534;12.784;2023-02-28T07:52:42;12.38;;;6.95;;
73893;SDS011;62699;50.534;12.784;2023-02-28T07:57:42;11.45;;;6.80;;
73893;SDS011;62699;50.534;12.784;2023-02-28T08:02:43;12.40;;;7.93;;
73893;SDS011;62699;50.534;12.784;2023-02-28T08:07:43;11.18;;;7.30;;
73893;SDS011;62699;50.534;12.784;2023-02-28T08:12:43;13.13;;;9.50;;
73893;SDS011;62699;50.534;12.784;2023-02-28T08:17:44;13.93;;;9.90;;
73893;SDS011;62699;50.534;12.784;2023-02-28T08:22:44;12.70;;;7.05;;
73893;SDS011;62699;50.534;12.784;2023-02-28T08:27:45;27.08;;;15.52;;
73893;SDS011;62699;50.534;12.784;2023-02-28T08:32:45;11.27;;;6.03;;
73893;SDS011;62699;50.534;12.784;2023-02-28T08:37:47;13.35;;;7.55;;
73893;SDS011;62699;50.534;12.784;2023-02-28T08:42:48;12.50;;;6.25;;
73893;SDS011;62699;50.534;12.784;2023-02-28T08:47:49;12.15;;;7.43;;
73893;SDS011;62699;50.534;12.784;2023-02-28T08:52:53;12.60;;;7.07;;
73893;SDS011;62699;50.534;12.784;2023-02-28T08:57:55;14.95;;;9.25;;
73893;SDS011;62699;50.534;12.784;2023-02-28T09:02:55;11.80;;;6.68;;
73893;SDS011;62699;50.534;12.784;2023-02-28T09:07:55;13.45;;;7.40;;
73893;SDS011;62699;50.534;12.784;2023-02-28T09:12:55;10.55;;;5.72;;
73893;SDS011;62699;50.534;12.784;2023-02-28T09:17:56;9.25;;;5.05;;
73893;SDS011;62699;50.534;12.784;2023-02-28T09:22:57;11.32;;;5.60;;
73893;SDS011;62699;50.534;12.784;2023-02-28T09:27:57;11.40;;;5.38;;
73893;SDS011;62699;50.534;12.784;2023-02-28T09:32:57;10.93;;;5.40;;
73893;SDS011;62699;50.534;12.784;2023-02-28T09:37:58;9.18;;;4.85;;
73893;SDS011;62699;50.534;12.784;2023-02-28T09:42:58;8.58;;;4.98;;
73893;SDS011;62699;50.534;12.784;2023-02-28T09:48:01;9.82;;;5.45;;
73893;SDS011;62699;50.534;12.784;2023-02-28T10:03:47;21.05;;;11.65;;
73893;SDS011;62699;50.534;12.784;2023-02-28T10:09:03;13.35;;;7.45;;
73893;SDS011;62699;50.534;12.784;2023-02-28T10:14:18;10.07;;;5.53;;
73893;SDS011;62699;50.534;12.784;2023-02-28T10:19:30;11.20;;;5.68;;
73893;SDS011;62699;50.534;12.784;2023-02-28T10:29:42;13.20;;;6.50;;
73893;SDS011;62699;50.534;12.784;2023-02-28T10:34:50;11.18;;;5.85;;
73893;SDS011;62699;50.534;12.784;2023-02-28T10:39:53;12.85;;;7.53;;
73893;SDS011;62699;50.534;12.784;2023-02-28T10:45:04;13.73;;;8.30;;
73893;SDS011;62699;50.534;12.784;2023-02-28T10:50:05;10.73;;;6.55;;
73893;SDS011;62699;50.534;12.784;2023-02-28T10:55:18;12.68;;;6.50;;
73893;SDS011;62699;50.534;12.784;2023-02-28T11:00:22;11.05;;;7.13;;
73893;SDS011;62699;50.534;12.784;2023-02-28T11:05:30;9.90;;;6.03;;
73893;SDS011;62699;50.534;12.784;2023-02-28T11:10:32;11.23;;;6.35;;
73893;SDS011;62699;50.534;12.784;2023-02-28T11:15:36;11.57;;;6.63;;
73893;SDS011;62699;50.534;12.784;2023-02-28T11:20:36;12.00;;;6.65;;
73893;SDS011;62699;50.534;12.784;2023-02-28T11:25:37;11.00;;;6.35;;
73893;SDS011;62699;50.534;12.784;2023-02-28T11:30:39;10.02;;;5.97;;
73893;SDS011;62699;50.534;12.784;2023-02-28T11:35:40;12.68;;;6.25;;
73893;SDS011;62699;50.534;12.784;2023-02-28T11:46:17;23.15;;;13.40;;
73893;SDS011;62699;50.534;12.784;2023-02-28T11:51:35;10.52;;;6.45;;
73893;SDS011;62699;50.534;12.784;2023-02-28T11:56:48;32.47;;;16.27;;
73893;SDS011;62699;50.534;12.784;2023-02-28T12:07:22;9.23;;;5.65;;
73893;SDS011;62699;50.534;12.784;2023-02-28T12:12:50;11.77;;;6.53;;
73893;SDS011;62699;50.534;12.784;2023-02-28T12:28:51;10.85;;;6.18;;
73893;SDS011;62699;50.534;12.784;2023-02-28T12:33:56;12.77;;;6.30;;
73893;SDS011;62699;50.534;12.784;2023-02-28T12:39:04;10.23;;;6.03;;
73893;SDS011;62699;50.534;12.784;2023-02-28T12:49:46;12.23;;;6.82;;
73893;SDS011;62699;50.534;12.784;2023-02-28T13:00:36;14.70;;;7.90;;
73893;SDS011;62699;50.534;12.784;2023-02-28T13:06:05;11.70;;;6.63;;
73893;SDS011;62699;50.534;12.784;2023-02-28T13:11:28;19.57;;;11.10;;
73893;SDS011;62699;50.534;12.784;2023-02-28T13:17:23;12.02;;;7.88;;
73893;SDS011;62699;50.534;12.784;2023-02-28T13:27:39;14.52;;;7.78;;
73893;SDS011;62699;50.534;12.784;2023-02-28T13:32:41;15.52;;;9.48;;
73893;SDS011;62699;50.534;12.784;2023-02-28T13:37:42;12.95;;;7.80;;
73893;SDS011;62699;50.534;12.784;2023-02-28T13:47:51;12.07;;;6.72;;
73893;SDS011;62699;50.534;12.784;2023-02-28T14:08:58;16.00;;;8.40;;
73893;SDS011;62699;50.534;12.784;2023-02-28T14:14:01;15.23;;;7.78;;
73893;SDS011;62699;50.534;12.784;2023-02-28T14:19:04;14.38;;;8.45;;
73893;SDS011;62699;50.534;12.784;2023-02-28T14:24:21;20.80;;;11.27;;
73893;SDS011;62699;50.534;12.784;2023-02-28T14:40:25;18.20;;;9.85;;
73893;SDS011;62699;50.534;12.784;2023-02-28T14:45:32;14.85;;;8.90;;
73893;SDS011;62699;50.534;12.784;2023-02-28T14:50:35;12.18;;;8.57;;
73893;SDS011;62699;50.534;12.784;2023-02-28T14:55:36;11.40;;;7.18;;
73893;SDS011;62699;50.534;12.784;2023-02-28T15:00:42;14.80;;;9.13;;
73893;SDS011;62699;50.534;12.784;2023-02-28T15:05:54;14.00;;;7.25;;
73893;SDS011;62699;50.534;12.784;2023-02-28T15:16:49;15.10;;;9.57;;
73893;SDS011;62699;50.534;12.784;2023-02-28T15:21:36;15.48;;;8.95;;
73893;SDS011;62699;50.534;12.784;2023-02-28T15:26:45;22.33;;;12.98;;
73893;SDS011;62699;50.534;12.784;2023-02-28T15:31:55;13.55;;;8.32;;
73893;SDS011;62699;50.534;12.784;2023-02-28T15:37:24;26.70;;;12.73;;
73893;SDS011;62699;50.534;12.784;2023-02-28T15:42:30;16.73;;;10.25;;
73893;SDS011;62699;50.534;12.784;2023-02-28T15:47:32;19.95;;;11.80;;
73893;SDS011;62699;50.534;12.784;2023-02-28T15:52:43;18.98;;;11.38;;
73893;SDS011;62699;50.534;12.784;2023-02-28T15:57:45;23.40;;;13.02;;
73893;SDS011;62699;50.534;12.784;2023-02-28T16:02:48;22.92;;;12.50;;
73893;SDS011;62699;50.534;12.784;2023-02-28T16:07:49;15.38;;;9.27;;
73893;SDS011;62699;50.534;12.784;2023-02-28T16:12:52;14.23;;;8.70;;
73893;SDS011;62699;50.534;12.784;2023-02-28T16:17:54;17.58;;;10.70;;
73893;SDS011;62699;50.534;12.784;2023-02-28T16:22:56;20.63;;;9.88;;
73893;SDS011;62699;50.534;12.784;2023-02-28T16:28:03;17.08;;;10.07;;
73893;SDS011;62699;50.534;12.784;2023-02-28T16:33:12;24.38;;;13.80;;
73893;SDS011;62699;50.534;12.784;2023-02-28T16:38:14;25.23;;;14.00;;
73893;SDS011;62699;50.534;12.784;2023-02-28T16:43:18;21.80;;;12.73;;
73893;SDS011;62699;50.534;12.784;2023-02-28T16:48:22;37.22;;;20.88;;
73893;SDS011;62699;50.534;12.784;2023-02-28T16:53:23;21.15;;;11.93;;
73893;SDS011;62699;50.534;12.784;2023-02-28T16:58:24;49.78;;;27.98;;
73893;SDS011;62699;50.534;12.784;2023-02-28T17:03:27;23.63;;;13.13;;
73893;SDS011;62699;50.534;12.784;2023-02-28T17:08:29;35.35;;;20.00;;
73893;SDS011;62699;50.534;12.784;2023-02-28T17:13:32;24.45;;;15.15;;
73893;SDS011;62699;50.534;12.784;2023-02-28T17:18:35;33.05;;;23.38;;
73893;SDS011;62699;50.534;12.784;2023-02-28T17:23:36;64.53;;;30.98;;
73893;SDS011;62699;50.534;12.784;2023-02-28T17:28:36;65.35;;;33.58;;
73893;SDS011;62699;50.534;12.784;2023-02-28T17:33:36;53.53;;;26.98;;
73893;SDS011;62699;50.534;12.784;2023-02-28T17:38:37;17.60;;;11.07;;
73893;SDS011;62699;50.534;12.784;2023-02-28T17:43:38;62.28;;;29.42;;
73893;SDS011;62699;50.534;12.784;2023-02-28T17:48:38;48.00;;;27.98;;
73893;SDS011;62699;50.534;12.784;2023-02-28T17:53:38;32.20;;;16.52;;
73893;SDS011;62699;50.534;12.784;2023-02-28T17:58:39;129.82;;;55.13;;
73893;SDS011;62699;50.534;12.784;2023-02-28T18:03:40;42.70;;;20.17;;
73893;SDS011;62699;50.534;12.784;2023-02-28T18:08:40;29.73;;;17.30;;
73893;SDS011;62699;50.534;12.784;2023-02-28T18:13:41;23.23;;;12.15;;
73893;SDS011;62699;50.534;12.784;2023-02-28T18:18:41;19.60;;;12.65;;
73893;SDS011;62699;50.534;12.784;2023-02-28T18:23:43;30.20;;;14.93;;
73893;SDS011;62699;50.534;12.784;2023-02-28T18:28:48;67.43;;;36.75;;
73893;SDS011;62699;50.534;12.784;2023-02-28T18:33:49;51.75;;;26.80;;
73893;SDS011;62699;50.534;12.784;2023-02-28T18:38:50;28.27;;;14.13;;
73893;SDS011;62699;50.534;12.784;2023-02-28T18:43:51;30.98;;;14.85;;
73893;SDS011;62699;50.534;12.784;2023-02-28T18:48:53;38.20;;;21.15;;
73893;SDS011;62699;50.534;12.784;2023-02-28T18:53:53;27.55;;;13.82;;
73893;SDS011;62699;50.534;12.784;2023-02-28T18:58:53;23.05;;;13.30;;
73893;SDS011;62699;50.534;12.784;2023-02-28T19:03:54;28.60;;;13.50;;
73893;SDS011;62699;50.534;12.784;2023-02-28T19:08:55;23.48;;;13.75;;
73893;SDS011;62699;50.534;12.784;2023-02-28T19:13:57;26.05;;;13.73;;
73893;SDS011;62699;50.534;12.784;2023-02-28T19:18:57;31.80;;;15.28;;
73893;SDS011;62699;50.534;12.784;2023-02-28T19:23:57;31.62;;;18.04;;
73893;SDS011;62699;50.534;12.784;2023-02-28T19:29:00;29.77;;;15.73;;
73893;SDS011;62699;50.534;12.784;2023-02-28T19:34:03;31.55;;;15.13;;
73893;SDS011;62699;50.534;12.784;2023-02-28T19:39:04;24.05;;;14.32;;
73893;SDS011;62699;50.534;12.784;2023-02-28T19:44:05;25.20;;;14.35;;
73893;SDS011;62699;50.534;12.784;2023-02-28T19:49:06;25.75;;;14.10;;
73893;SDS011;62699;50.534;12.784;2023-02-28T19:54:06;25.80;;;13.54;;
73893;SDS011;62699;50.534;12.784;2023-02-28T19:59:06;27.25;;;15.70;;
73893;SDS011;62699;50.534;12.784;2023-02-28T20:04:07;28.92;;;14.85;;
73893;SDS011;62699;50.534;12.784;2023-02-28T20:09:09;37.03;;;17.73;;
73893;SDS011;62699;50.534;12.784;2023-02-28T20:14:10;24.55;;;13.32;;
73893;SDS011;62699;50.534;12.784;2023-02-28T20:19:13;26.95;;;13.60;;
73893;SDS011;62699;50.534;12.784;2023-02-28T20:24:13;24.75;;;12.80;;
73893;SDS011;62699;50.534;12.784;2023-02-28T20:29:14;28.88;;;14.35;;
73893;SDS011;62699;50.534;12.784;2023-02-28T20:34:14;30.92;;;14.57;;
73893;SDS011;62699;50.534;12.784;2023-02-28T20:39:16;23.83;;;12.35;;
73893;SDS011;62699;50.534;12.784;2023-02-28T20:44:17;27.63;;;15.07;;
73893;SDS011;62699;50.534;12.784;2023-02-28T20:49:18;28.27;;;13.55;;
73893;SDS011;62699;50.534;12.784;2023-02-28T20:54:19;25.73;;;13.77;;
73893;SDS011;62699;50.534;12.784;2023-02-28T20:59:20;43.78;;;22.38;;
73893;SDS011;62699;50.534;12.784;2023-02-28T21:04:23;30.58;;;15.82;;
73893;SDS011;62699;50.534;12.784;2023-02-28T21:09:23;28.92;;;13.95;;
73893;SDS011;62699;50.534;12.784;2023-02-28T21:14:24;26.83;;;14.80;;
73893;SDS011;62699;50.534;12.784;2023-02-28T21:19:25;28.25;;;15.95;;
73893;SDS011;62699;50.534;12.784;2023-02-28T21:24:26;26.25;;;13.52;;
73893;SDS011;62699;50.534;12.784;2023-02-28T21:29:26;24.67;;;13.43;;
73893;SDS011;62699;50.534;12.784;2023-02-28T21:34:26;22.05;;;12.80;;
73893;SDS011;62699;50.534;12.784;2023-02-28T21:39:27;22.80;;;12.48;;
73893;SDS011;62699;50.534;12.784;2023-02-28T21:44:31;20.35;;;12.07;;
73893;SDS011;62699;50.534;12.784;2023-02-28T21:49:33;24.45;;;12.82;;
73893;SDS011;62699;50.534;12.784;2023-02-28T21:54:33;21.30;;;12.40;;
73893;SDS011;62699;50.534;12.784;2023-02-28T21:59:34;25.90;;;13.73;;
73893;SDS011;62699;50.534;12.784;2023-02-28T22:04:35;26.50;;;13.23;;
73893;SDS011;62699;50.534;12.784;2023-02-28T22:09:36;21.00;;;10.80;;
73893;SDS011;62699;50.534;12.784;2023-02-28T22:14:37;24.33;;;12.65;;
73893;SDS011;62699;50.534;12.784;2023-02-28T22:19:39;21.10;;;11.00;;
73893;SDS011;62699;50.534;12.784;2023-02-28T22:24:39;20.58;;;10.52;;
73893;SDS011;62699;50.534;12.784;2023-02-28T22:29:40;20.65;;;11.00;;
73893;SDS011;62699;50.534;12.784;2023-02-28T22:34:40;16.98;;;9.88;;
73893;SDS011;62699;50.534;12.784;2023-02-28T22:39:40;19.25;;;10.15;;
73893;SDS011;62699;50.534;12.784;2023-02-28T22:44:41;19.38;;;9.43;;
73893;SDS011;62699;50.534;12.784;2023-02-28T22:49:41;16.98;;;9.20;;
73893;SDS011;62699;50.534;12.784;2023-02-28T22:54:41;19.88;;;10.30;;
73893;SDS011;62699;50.534;12.784;2023-02-28T22:59:42;17.73;;;10.02;;
73893;SDS011;62699;50.534;12.784;2023-02-28T23:04:42;18.05;;;9.55;;
73893;SDS011;62699;50.534;12.784;2023-02-28T23:09:43;23.25;;;10.18;;
73893;SDS011;62699;50.534;12.784;2023-02-28T23:14:43;29.98;;;13.80;;
73893;SDS011;62699;50.534;12.784;2023-02-28T23:19:44;25.05;;;12.40;;
73893;SDS011;62699;50.534;12.784;2023-02-28T23:24:44;18.33;;;9.82;;
73893;SDS011;62699;50.534;12.784;2023-02-28T23:29:44;17.80;;;10.18;;
73893;SDS011;62699;50.534;12.784;2023-02-28T23:34:45;15.30;;;9.07;;
73893;SDS011;62699;50.534;12.784;2023-02-28T23:39:45;17.15;;;8.93;;
73893;SDS011;62699;50.534;12.784;2023-02-28T23:44:45;16.10;;;8.60;;
73893;SDS011;62699;50.534;12.784;2023-02-28T23:49:46;13.48;;;8.02;;
73893;SDS011;62699;50.534;12.784;2023-02-28T23:54:47;16.90;;;8.63;;
73893;SDS011;62699;50.534;12.784;2023-02-28T23:59:47;17.20;;;8.90;;
